Time;durP1;ratioP1;P1;durP2;ratioP2;P2;SDS_P1;SDS_P2;PMS_P1;PMS_P2;Temp;Humidity;BMP_temperature;BMP_pressure;BME280_temperature;BME280_humidity;BME280_pressure;Samples;Min_cycle;Max_cycle;Signal;HPM_P1;HPM_P2
2021/12/06 00:00:03;;;;;;;2.70;2.50;;;;;;;15.80;47.75;96032.38;4956176;28;20597;-82
2021/12/06 00:02:30;;;;;;;2.60;2.40;;;;;;;16.61;47.68;96141.06;4955491;28;20570;-82
2021/12/06 00:04:57;;;;;;;2.90;2.60;;;;;;;17.61;47.73;96299.38;4954831;28;20208;-82
2021/12/06 00:07:23;;;;;;;2.70;2.50;;;;;;;18.57;47.83;96467.09;4951906;29;20228;-82
2021/12/06 00:09:50;;;;;;;2.90;2.70;;;;;;;19.51;48.11;96625.53;4937536;29;20216;-82
2021/12/06 00:12:17;;;;;;;2.70;2.50;;;;;;;19.51;48.00;96634.03;4945084;29;20220;-82
2021/12/06 00:14:45;;;;;;;2.80;2.60;;;;;;;18.94;47.85;96537.53;4939613;29;20675;-82
2021/12/06 00:17:12;;;;;;;2.60;2.40;;;;;;;18.39;47.88;96447.97;4939168;29;20678;-82
2021/12/06 00:19:39;;;;;;;2.43;2.23;;;;;;;18.59;47.99;96490.03;4954837;28;20205;-82
2021/12/06 00:22:11;;;;;;;2.47;2.27;;;;;;;14.85;48.28;95846.56;4969038;28;20220;-82
2021/12/06 00:24:38;;;;;;;2.77;2.57;;;;;;;17.06;48.08;96233.63;4955396;29;20227;-82
2021/12/06 00:27:05;;;;;;;2.60;2.40;;;;;;;18.60;47.96;96494.28;4955101;28;20264;-80
2021/12/06 00:29:31;;;;;;;2.70;2.50;;;;;;;18.56;48.12;96488.25;4956395;28;20193;-83
2021/12/06 00:31:58;;;;;;;2.43;2.23;;;;;;;17.71;48.25;96352.16;4939980;29;20564;-82
2021/12/06 00:34:30;;;;;;;2.60;2.40;;;;;;;19.06;48.01;96576.88;4954569;28;20701;-83
2021/12/06 00:37:17;;;;;;;2.83;2.50;;;;;;;18.03;48.17;96407.22;4955543;29;20263;-82
2021/12/06 00:39:46;;;;;;;4.03;2.60;;;;;;;19.18;48.20;96596.66;4969540;28;20211;-82
2021/12/06 00:42:15;;;;;;;2.80;2.60;;;;;;;17.77;48.12;96354.88;4956864;28;20239;-81
2021/12/06 00:44:42;;;;;;;2.80;2.60;;;;;;;15.77;47.99;96012.03;4956464;29;20215;-82
2021/12/06 00:47:09;;;;;;;2.90;2.70;;;;;;;18.90;48.01;96549.34;4972291;28;20224;-83
2021/12/06 00:49:36;;;;;;;3.00;2.80;;;;;;;14.42;48.28;95811.63;4954908;28;20599;-82
2021/12/06 00:52:05;;;;;;;2.90;2.70;;;;;;;18.59;47.96;96497.66;4954480;28;20600;-80
2021/12/06 00:54:35;;;;;;;3.03;2.80;;;;;;;19.08;48.16;96576.91;4954257;29;20231;-83
2021/12/06 00:57:03;;;;;;;3.10;2.90;;;;;;;19.30;48.12;96627.59;4954386;28;20219;-82
2021/12/06 00:59:30;;;;;;;2.90;2.70;;;;;;;19.76;48.18;96705.16;4955191;28;20204;-82
2021/12/06 01:01:57;;;;;;;3.40;3.10;;;;;;;17.55;48.24;96355.13;4954103;28;20211;-84
2021/12/06 01:04:23;;;;;;;3.27;3.00;;;;;;;15.90;48.42;96054.63;4970508;28;20572;-82
2021/12/06 01:06:50;;;;;;;3.03;2.83;;;;;;;18.78;48.05;96548.16;4955421;28;20225;-82
2021/12/06 01:09:17;;;;;;;3.03;2.77;;;;;;;19.56;48.18;96672.34;4954949;28;20200;-83
2021/12/06 01:11:44;;;;;;;2.70;2.50;;;;;;;18.56;48.46;96521.31;4954338;29;20204;-82
2021/12/06 01:14:10;;;;;;;3.30;3.00;;;;;;;16.21;48.24;96096.03;4969682;28;20615;-82
2021/12/06 01:16:37;;;;;;;2.60;2.40;;;;;;;18.99;48.31;96571.59;4955895;28;20243;-82
2021/12/06 01:19:04;;;;;;;2.47;2.30;;;;;;;16.67;48.19;96183.50;4938045;29;20215;-83
2021/12/06 01:21:44;;;;;;;2.70;2.50;;;;;;;18.56;48.31;96500.13;4937129;29;20204;-83
2021/12/06 01:24:12;;;;;;;2.67;2.47;;;;;;;17.81;48.01;96417.63;4939885;29;20204;-83
2021/12/06 01:29:44;;;;;;;2.57;2.37;;;;;;;19.38;48.20;96651.53;4955700;29;20205;-82
2021/12/06 01:33:03;;;;;;;3.10;2.90;;;;;;;18.06;48.57;96428.47;4954263;28;20252;-82
2021/12/06 01:40:23;;;;;;;3.07;2.87;;;;;;;19.77;48.31;96716.19;4954647;28;20282;-82
2021/12/06 01:42:49;;;;;;;3.30;3.00;;;;;;;18.86;48.37;96572.13;4951110;28;20280;-82
2021/12/06 01:45:17;;;;;;;2.90;2.70;;;;;;;19.77;48.26;96722.16;4938314;29;20288;-82
2021/12/06 01:47:44;;;;;;;3.17;2.90;;;;;;;13.52;47.92;95659.84;4954632;28;20228;-83
2021/12/06 01:50:14;;;;;;;3.30;3.00;;;;;;;15.59;47.95;96095.94;4939413;29;20204;-81
2021/12/06 01:52:46;;;;;;;3.50;3.20;;;;;;;12.70;48.20;95535.38;4955443;28;20220;-81
2021/12/06 01:55:17;;;;;;;3.40;3.10;;;;;;;17.22;48.26;96295.78;4954340;29;20291;-80
2021/12/06 01:57:44;;;;;;;3.27;3.00;;;;;;;19.76;48.25;96733.19;4955075;28;20196;-81
2021/12/06 02:00:18;;;;;;;3.30;3.00;;;;;;;17.77;48.32;96391.28;4968291;28;20243;-83
2021/12/06 02:02:45;;;;;;;3.37;3.07;;;;;;;14.78;48.30;95877.56;4951745;28;20359;-83
2021/12/06 02:05:12;;;;;;;3.40;3.10;;;;;;;15.72;48.15;96066.78;4943472;28;20662;-82
2021/12/06 02:07:38;;;;;;;3.37;3.07;;;;;;;15.16;48.39;95950.34;4944838;28;20227;-82
2021/12/06 02:10:06;;;;;;;3.00;2.80;;;;;;;16.78;48.34;96236.25;4947565;28;20203;-83
2021/12/06 02:12:38;;;;;;;3.07;2.87;;;;;;;13.97;48.23;95760.53;4948802;28;20287;-83
2021/12/06 02:15:14;;;;;;;3.50;3.20;;;;;;;17.29;48.35;96336.63;4927097;29;20209;-82
2021/12/06 02:17:51;;;;;;;3.00;2.80;;;;;;;19.42;48.42;96676.28;4961952;28;20203;-82
2021/12/06 02:20:25;;;;;;;3.00;2.80;;;;;;;19.26;48.46;96666.50;4960692;28;20207;-82
2021/12/06 02:22:52;;;;;;;3.20;3.00;;;;;;;18.00;48.23;96445.28;4943594;28;20232;-83
2021/12/06 02:25:20;;;;;;;3.57;3.27;;;;;;;19.58;48.51;96722.56;4965838;28;20205;-81
2021/12/06 02:27:48;;;;;;;2.80;2.60;;;;;;;17.00;48.54;96271.53;4946197;29;20630;-80
2021/12/06 02:30:15;;;;;;;3.60;3.30;;;;;;;18.51;48.29;96532.22;4962696;28;20204;-81
2021/12/06 02:32:42;;;;;;;3.07;2.87;;;;;;;18.59;48.57;96546.00;4962327;28;20225;-82
2021/12/06 02:35:12;;;;;;;3.07;2.73;;;;;;;18.48;48.14;96527.94;4960796;28;20201;-82
2021/12/06 02:37:39;;;;;;;3.50;3.20;;;;;;;18.90;48.47;96599.38;4968596;28;20204;-83
2021/12/06 02:40:16;;;;;;;3.80;3.50;;;;;;;19.26;48.41;96662.28;4950977;28;20284;-81
2021/12/06 02:42:45;;;;;;;4.00;3.60;;;;;;;17.63;48.83;96390.06;4969018;28;20239;-81
2021/12/06 02:45:14;;;;;;;3.17;2.97;;;;;;;18.64;47.71;96564.78;4957361;28;20240;-82
2021/12/06 02:47:41;;;;;;;3.77;3.47;;;;;;;15.09;48.41;95968.66;4961702;28;20231;-82
2021/12/06 02:50:11;;;;;;;3.63;3.33;;;;;;;18.59;48.34;96548.56;4948530;28;20209;-84
2021/12/06 02:52:38;;;;;;;3.50;3.20;;;;;;;17.43;48.25;96367.44;4946679;28;20221;-83
2021/12/06 02:55:22;;;;;;;3.43;3.13;;;;;;;19.02;48.15;96633.66;4954424;28;20204;-83
2021/12/06 02:57:54;;;;;;;3.83;3.53;;;;;;;17.89;48.39;96436.50;4949118;28;20256;-83
2021/12/06 03:00:24;;;;;;;3.60;3.30;;;;;;;18.01;48.14;96452.06;4947185;28;20212;-83
2021/12/06 03:02:55;;;;;;;3.27;3.07;;;;;;;18.63;48.31;96571.56;4950462;28;20307;-82
2021/12/06 03:05:21;;;;;;;3.60;3.30;;;;;;;18.49;48.28;96547.44;4940164;29;20685;-82
2021/12/06 03:08:00;;;;;;;3.43;3.13;;;;;;;17.13;48.28;96315.84;4957736;28;20224;-82
2021/12/06 03:10:27;;;;;;;3.50;3.20;;;;;;;15.88;48.26;96170.22;4971300;28;20208;-82
2021/12/06 03:12:54;;;;;;;3.33;3.03;;;;;;;19.24;48.40;96685.97;4956169;28;20232;-83
2021/12/06 03:15:23;;;;;;;3.70;3.40;;;;;;;17.39;48.47;96365.66;4970224;28;20207;-81
2021/12/06 03:17:49;;;;;;;3.10;2.90;;;;;;;19.26;48.35;96689.41;4956721;29;20224;-83
2021/12/06 03:20:19;;;;;;;3.73;3.43;;;;;;;19.75;48.58;96776.50;4951261;28;20208;-82
2021/12/06 03:22:46;;;;;;;3.70;3.40;;;;;;;17.66;48.40;96418.09;4946002;28;20279;-83
2021/12/06 03:25:18;;;;;;;3.13;2.93;;;;;;;18.08;48.43;96486.97;4956676;29;20196;-83
2021/12/06 03:27:46;;;;;;;3.47;3.17;;;;;;;18.29;48.46;96522.28;4951956;29;20212;-84
2021/12/06 03:30:18;;;;;;;3.67;3.37;;;;;;;18.55;48.43;96570.50;4972213;28;20523;-82
2021/12/06 03:32:50;;;;;;;3.40;3.10;;;;;;;17.33;48.42;96360.41;4938455;29;20311;-82
2021/12/06 03:35:17;;;;;;;3.50;3.20;;;;;;;16.36;48.36;96235.00;4945973;28;20197;-83
2021/12/06 03:37:44;;;;;;;3.40;3.10;;;;;;;19.12;48.37;96673.78;4939065;29;20200;-81
2021/12/06 03:40:11;;;;;;;3.70;3.40;;;;;;;18.85;48.35;96642.53;4957063;29;20232;-82
2021/12/06 03:42:38;;;;;;;4.00;3.70;;;;;;;19.32;48.33;96718.50;4971713;28;20275;-82
2021/12/06 03:45:06;;;;;;;3.83;3.53;;;;;;;15.16;48.39;96023.72;4957710;28;20211;-83
2021/12/06 03:47:33;;;;;;;3.50;3.20;;;;;;;14.09;48.18;95825.69;4954902;28;20220;-83
2021/12/06 03:50:00;;;;;;;3.60;3.30;;;;;;;14.53;48.22;95884.41;4957528;28;20204;-83
2021/12/06 03:52:30;;;;;;;4.47;3.93;;;;;;;16.96;48.24;96312.84;4957598;28;20224;-80
2021/12/06 03:55:03;;;;;;;4.00;3.70;;;;;;;17.27;47.87;96442.38;4954687;29;20204;-83
2021/12/06 03:57:30;;;;;;;4.00;3.43;;;;;;;16.89;48.40;96315.19;4946582;28;20267;-83
2021/12/06 03:59:57;;;;;;;3.67;3.37;;;;;;;13.35;48.13;95755.19;4964059;28;20220;-83
2021/12/06 04:02:28;;;;;;;3.63;3.33;;;;;;;17.45;48.34;96432.75;4967078;28;20228;-83
2021/12/06 04:04:55;;;;;;;3.50;3.20;;;;;;;15.00;47.97;96064.50;4970357;28;20204;-81
2021/12/06 04:07:22;;;;;;;3.40;3.10;;;;;;;14.01;48.36;95890.28;4971289;28;20196;-83
2021/12/06 04:09:49;;;;;;;3.53;3.23;;;;;;;18.60;48.38;96634.22;4957443;28;20209;-82
2021/12/06 04:12:16;;;;;;;3.60;3.30;;;;;;;16.64;48.42;96289.94;4955106;28;20251;-82
2021/12/06 04:14:47;;;;;;;3.60;3.30;;;;;;;18.81;48.15;96673.84;4971654;28;20247;-82
2021/12/06 04:17:13;;;;;;;3.37;3.07;;;;;;;17.87;48.46;96568.63;4971120;28;20216;-82
2021/12/06 04:19:44;;;;;;;3.20;2.90;;;;;;;15.77;48.25;96185.09;4971520;28;20673;-82
2021/12/06 04:22:11;;;;;;;3.60;3.30;;;;;;;16.82;48.26;96356.44;4971439;28;20224;-83
2021/12/06 04:24:38;;;;;;;3.00;2.80;;;;;;;17.58;48.47;96466.97;4954754;28;20200;-83
2021/12/06 04:27:23;;;;;;;3.30;3.10;;;;;;;18.56;48.34;96638.38;4957390;28;20241;-84
2021/12/06 04:29:50;;;;;;;3.50;3.20;;;;;;;18.58;48.27;96643.50;4942269;29;20192;-81
2021/12/06 04:32:19;;;;;;;3.23;3.03;;;;;;;19.31;48.11;96777.06;4956928;28;20283;-82
2021/12/06 04:34:46;;;;;;;3.60;3.30;;;;;;;17.98;48.40;96562.16;4956373;28;20208;-84
2021/12/06 04:37:13;;;;;;;3.60;3.30;;;;;;;18.23;48.37;96619.59;4952733;29;20186;-83
2021/12/06 04:39:42;;;;;;;4.07;3.67;;;;;;;19.10;48.39;96779.84;4952011;28;20208;-83
2021/12/06 04:44:37;;;;;;;3.80;3.50;;;;;;;18.43;48.36;96656.66;5104563;23;20601;-84
2021/12/06 04:47:04;;;;;;;3.20;2.90;;;;;;;18.42;48.33;96677.84;4976995;28;20206;-83
2021/12/06 04:49:31;;;;;;;3.47;3.17;;;;;;;17.03;48.18;96407.78;4942134;28;20215;-84
2021/12/06 04:52:00;;;;;;;3.50;3.20;;;;;;;17.09;48.10;96428.28;4974755;28;20207;-83
2021/12/06 04:54:31;;;;;;;3.77;3.47;;;;;;;18.83;48.63;96734.97;4975395;28;20242;-82
2021/12/06 04:57:19;;;;;;;4.20;3.80;;;;;;;18.32;48.25;96644.47;4943727;28;20239;-83
2021/12/06 04:59:59;;;;;;;4.10;3.43;;;;;;;17.73;48.34;96544.47;4958983;28;20200;-83
2021/12/06 05:02:34;;;;;;;3.83;3.47;;;;;;;19.05;48.28;96783.09;4986347;28;20237;-83
2021/12/06 05:05:07;;;;;;;3.73;3.43;;;;;;;18.71;48.50;96724.47;4978120;28;20212;-83
2021/12/06 05:07:48;;;;;;;3.43;3.13;;;;;;;19.55;48.34;96864.31;4959314;28;20200;-82
2021/12/06 05:10:15;;;;;;;3.37;3.07;;;;;;;16.68;48.16;96395.72;4959231;28;20191;-83
2021/12/06 05:12:43;;;;;;;3.70;3.37;;;;;;;18.92;48.46;96761.53;4941651;28;20235;-82
2021/12/06 05:15:10;;;;;;;3.57;3.23;;;;;;;18.78;48.42;96741.63;4942484;28;20475;-83
2021/12/06 05:17:37;;;;;;;3.80;3.50;;;;;;;18.43;48.47;96678.69;4981515;28;20230;-83
2021/12/06 05:20:05;;;;;;;3.90;3.60;;;;;;;14.84;48.38;96091.00;4981723;28;20684;-84
2021/12/06 05:22:32;;;;;;;3.50;3.20;;;;;;;13.48;48.28;95825.44;4976251;28;20203;-83
2021/12/06 05:24:59;;;;;;;4.07;3.67;;;;;;;16.81;48.16;96397.84;4962393;28;20202;-83
2021/12/06 05:27:29;;;;;;;4.33;3.93;;;;;;;18.41;48.25;96710.88;4974877;28;20214;-83
2021/12/06 05:29:59;;;;;;;3.97;3.57;;;;;;;16.69;48.04;96415.22;4958765;28;20212;-83
2021/12/06 05:32:28;;;;;;;4.10;3.70;;;;;;;16.76;48.34;96401.91;4943467;28;20714;-82
2021/12/06 05:35:02;;;;;;;3.87;3.50;;;;;;;16.12;48.20;96295.97;4958988;28;20222;-83
2021/12/06 05:37:29;;;;;;;3.97;3.67;;;;;;;18.23;48.26;96672.16;4973932;28;20254;-83
2021/12/06 05:39:56;;;;;;;4.23;3.83;;;;;;;18.77;48.31;96758.56;4941788;28;20246;-84
2021/12/06 05:42:22;;;;;;;4.23;3.83;;;;;;;16.93;48.19;96451.50;4958690;28;20199;-83
2021/12/06 05:44:49;;;;;;;4.07;3.67;;;;;;;18.93;48.34;96790.41;4973993;28;20222;-83
2021/12/06 05:47:16;;;;;;;4.13;3.73;;;;;;;17.43;48.49;96543.59;4958553;28;20733;-84
2021/12/06 05:49:43;;;;;;;3.80;3.50;;;;;;;14.17;48.10;96007.00;4957276;28;20270;-83
2021/12/06 05:52:10;;;;;;;4.43;4.03;;;;;;;14.89;48.34;96111.38;4974358;28;20211;-84
2021/12/06 05:54:37;;;;;;;3.93;3.60;;;;;;;13.33;48.38;95887.97;4973664;28;20235;-84
2021/12/06 05:57:05;;;;;;;3.97;3.67;;;;;;;15.54;48.50;96262.00;4962353;28;20243;-83
2021/12/06 05:59:31;;;;;;;4.00;3.70;;;;;;;16.69;48.37;96422.84;4965583;28;20200;-82
2021/12/06 06:01:58;;;;;;;4.00;3.70;;;;;;;15.97;48.24;96319.97;4963863;28;20259;-83
2021/12/06 06:04:28;;;;;;;3.60;3.30;;;;;;;18.71;48.28;96808.44;4983747;28;20239;-82
2021/12/06 06:06:54;;;;;;;4.50;4.10;;;;;;;16.54;48.25;96448.56;4982048;28;20206;-80
2021/12/06 06:09:26;;;;;;;4.37;3.97;;;;;;;19.10;48.24;96846.06;4959079;28;20262;-79
2021/12/06 06:11:53;;;;;;;4.40;3.90;;;;;;;18.73;48.15;96777.13;4979987;28;20320;-81
2021/12/06 06:14:20;;;;;;;4.20;3.80;;;;;;;15.67;48.18;96268.34;4982952;28;20266;-79
2021/12/06 06:16:51;;;;;;;4.27;3.87;;;;;;;16.68;48.17;96479.44;4988945;28;20843;-83
2021/12/06 06:19:23;;;;;;;4.83;4.40;;;;;;;18.04;48.08;96686.91;4950808;28;20203;-82
2021/12/06 06:21:50;;;;;;;11.97;9.87;;;;;;;16.41;45.94;96438.84;4951646;28;20196;-83
2021/12/06 06:24:17;;;;;;;14.23;12.20;;;;;;;18.20;44.63;96718.69;4969176;28;20472;-83
2021/12/06 06:26:44;;;;;;;12.80;11.00;;;;;;;13.45;44.57;95901.00;4992784;28;20672;-81
2021/12/06 06:29:11;;;;;;;13.23;11.83;;;;;;;17.03;44.46;96552.47;4963117;28;20263;-82
2021/12/06 06:31:37;;;;;;;15.43;12.60;;;;;;;18.85;44.63;96837.69;4968620;28;20207;-82
2021/12/06 06:34:04;;;;;;;19.20;14.60;;;;;;;14.60;44.18;96118.00;4992464;28;20214;-81
2021/12/06 06:36:33;;;;;;;22.20;15.60;;;;;;;13.77;43.78;96003.91;4998290;28;20210;-82
2021/12/06 06:39:00;;;;;;;22.87;16.70;;;;;;;19.28;43.69;96993.50;4982205;28;20573;-83
2021/12/06 06:41:30;;;;;;;22.83;16.13;;;;;;;18.25;43.71;96762.94;4969180;28;20208;-83
2021/12/06 06:43:57;;;;;;;24.33;17.47;;;;;;;16.85;43.63;96582.31;4996429;28;20233;-82
2021/12/06 06:46:24;;;;;;;25.53;18.30;;;;;;;15.62;43.29;96392.25;4982108;28;20633;-83
2021/12/06 06:48:51;;;;;;;21.83;16.40;;;;;;;18.32;44.19;96835.22;4965571;28;20215;-81
2021/12/06 06:51:18;;;;;;;23.43;16.17;;;;;;;18.17;44.38;96844.09;4997480;28;20265;-82
2021/12/06 06:53:44;;;;;;;21.07;15.97;;;;;;;15.58;45.07;96366.78;4952539;28;20225;-83
2021/12/06 06:56:11;;;;;;;20.80;14.87;;;;;;;18.61;44.69;96909.09;4960563;28;20227;-82
2021/12/06 06:58:38;;;;;;;20.50;15.20;;;;;;;19.17;45.24;96944.75;4957263;28;20247;-82
2021/12/06 07:01:04;;;;;;;22.03;15.97;;;;;;;18.79;45.47;96890.97;4976542;28;20716;-82
2021/12/06 07:03:32;;;;;;;20.03;14.30;;;;;;;19.15;45.64;96959.13;4963280;28;20227;-82
2021/12/06 07:06:00;;;;;;;18.23;13.53;;;;;;;17.95;45.95;96755.22;4961109;28;20661;-81
2021/12/06 07:08:28;;;;;;;19.43;14.43;;;;;;;19.27;45.97;96989.25;4959255;28;20236;-83
2021/12/06 07:10:56;;;;;;;17.83;13.43;;;;;;;19.14;46.07;96971.81;4964783;28;20251;-80
2021/12/06 07:13:24;;;;;;;19.10;14.30;;;;;;;19.54;46.23;97039.31;4952928;28;20225;-81
2021/12/06 07:15:51;;;;;;;16.47;13.60;;;;;;;18.55;46.26;96874.94;4955971;28;20199;-81
2021/12/06 07:18:18;;;;;;;17.60;13.03;;;;;;;19.69;46.22;97079.69;4965776;28;20202;-81
2021/12/06 07:20:44;;;;;;;15.57;11.63;;;;;;;19.10;46.47;96958.13;4975728;28;20243;-82
2021/12/06 07:23:11;;;;;;;17.30;12.40;;;;;;;19.32;46.38;96993.66;4960456;28;20255;-81
2021/12/06 07:25:38;;;;;;;19.17;13.70;;;;;;;19.14;46.15;96959.94;4944286;28;20204;-82
2021/12/06 07:28:05;;;;;;;22.80;15.10;;;;;;;19.68;45.93;97053.31;4960168;28;20230;-83
2021/12/06 07:30:32;;;;;;;27.47;18.60;;;;;;;19.04;45.36;96941.81;4962166;28;20247;-80
2021/12/06 07:32:58;;;;;;;31.43;20.50;;;;;;;19.42;43.93;97004.97;4958681;28;20247;-82
2021/12/06 07:35:29;;;;;;;24.87;17.37;;;;;;;18.77;44.48;96901.09;4960728;28;20238;-80
2021/12/06 07:37:56;;;;;;;22.77;16.70;;;;;;;19.35;45.04;97003.06;4966317;28;20204;-82
2021/12/06 07:40:23;;;;;;;25.47;17.40;;;;;;;19.26;45.10;97001.06;4947783;28;20218;-82
2021/12/06 07:42:49;;;;;;;23.70;16.00;;;;;;;19.30;45.39;97009.72;4943516;28;20262;-83
2021/12/06 07:45:16;;;;;;;24.73;17.27;;;;;;;18.96;45.44;96946.69;4943338;28;20223;-82
2021/12/06 07:47:43;;;;;;;22.53;15.90;;;;;;;18.97;45.56;96956.03;4959742;28;20188;-82
2021/12/06 07:50:12;;;;;;;22.80;15.40;;;;;;;19.38;45.81;97037.13;4943478;28;20247;-83
2021/12/06 07:52:42;;;;;;;20.50;14.53;;;;;;;19.47;45.78;97049.28;4975333;28;20225;-83
2021/12/06 07:55:11;;;;;;;19.73;14.03;;;;;;;19.32;45.78;97034.41;4971465;28;20231;-81
2021/12/06 07:57:37;;;;;;;20.10;13.93;;;;;;;19.27;45.89;97023.19;4965425;28;20214;-81
2021/12/06 08:00:08;;;;;;;20.63;14.33;;;;;;;19.13;46.11;96995.56;4965587;28;20865;-82
2021/12/06 08:02:34;;;;;;;19.40;13.97;;;;;;;18.90;46.17;96955.78;4957707;28;20795;-81
2021/12/06 08:07:47;;;;;;;18.77;13.43;;;;;;;19.35;46.14;97041.25;4953232;28;20223;-82
2021/12/06 08:10:13;;;;;;;18.00;13.67;;;;;;;19.54;46.11;97074.16;4966711;28;20211;-82
2021/12/06 08:12:40;;;;;;;17.53;13.47;;;;;;;19.04;46.32;96987.66;4966728;28;20254;-82
2021/12/06 08:15:07;;;;;;;19.37;13.30;;;;;;;19.49;46.25;97076.56;4974991;28;20235;-80
2021/12/06 08:17:34;;;;;;;16.27;12.37;;;;;;;19.41;46.41;97057.63;4959441;28;20259;-81
2021/12/06 08:20:00;;;;;;;16.07;12.40;;;;;;;19.15;46.22;97024.47;4966285;28;20203;-82
2021/12/06 08:22:27;;;;;;;16.30;12.40;;;;;;;19.08;46.49;97012.38;4965745;28;20277;-83
2021/12/06 08:24:54;;;;;;;18.47;12.60;;;;;;;19.37;46.26;97066.00;4957556;28;20674;-81
2021/12/06 08:27:20;;;;;;;17.70;12.40;;;;;;;19.68;46.59;97119.63;4961846;28;20659;-80
2021/12/06 08:29:47;;;;;;;16.27;12.20;;;;;;;18.75;46.51;96960.41;4960566;28;20220;-81
2021/12/06 08:32:13;;;;;;;17.23;12.87;;;;;;;19.40;46.50;97068.63;4958470;28;20242;-80
2021/12/06 08:34:42;;;;;;;15.03;11.73;;;;;;;19.38;46.65;97080.44;4957368;28;20207;-81
2021/12/06 08:37:09;;;;;;;16.17;11.57;;;;;;;19.11;45.78;97038.81;4958741;28;20260;-82
2021/12/06 08:39:36;;;;;;;16.03;12.20;;;;;;;19.20;46.50;97049.28;4947165;28;20230;-81
2021/12/06 08:42:03;;;;;;;14.67;11.63;;;;;;;19.03;46.66;97013.91;4937047;29;20200;-81
2021/12/06 08:44:29;;;;;;;15.97;12.20;;;;;;;19.07;46.50;97023.41;4931489;28;20334;-80
2021/12/06 08:46:56;;;;;;;16.63;11.53;;;;;;;19.25;46.58;97059.63;4956166;28;20894;-82
2021/12/06 08:49:23;;;;;;;15.90;11.43;;;;;;;19.49;46.77;97098.63;4971631;28;20302;-81
2021/12/06 08:51:51;;;;;;;15.47;11.57;;;;;;;19.35;46.64;97076.94;4971451;28;20204;-82
2021/12/06 08:54:18;;;;;;;21.57;11.87;;;;;;;19.60;47.24;97141.44;4955500;28;20267;-82
2021/12/06 08:56:46;;;;;;;20.50;11.60;;;;;;;19.16;47.15;97051.69;4956024;28;20208;-83
2021/12/06 08:59:13;;;;;;;28.00;12.30;;;;;;;19.31;47.23;97072.56;4955233;28;20204;-83
2021/12/06 09:01:40;;;;;;;18.60;11.93;;;;;;;19.00;47.07;97022.31;4955270;28;20349;-84
2021/12/06 09:04:27;;;;;;;18.93;11.90;;;;;;;19.39;47.33;97092.38;4959684;28;20233;-82
2021/12/06 09:06:54;;;;;;;19.83;12.03;;;;;;;19.29;47.09;97081.84;4956052;28;20235;-82
2021/12/06 09:09:21;;;;;;;20.43;11.97;;;;;;;18.91;47.06;97024.59;4956454;28;20238;-82
2021/12/06 09:11:48;;;;;;;21.97;12.37;;;;;;;19.22;47.15;97074.81;4945293;28;20262;-80
2021/12/06 09:14:16;;;;;;;22.97;11.67;;;;;;;19.17;47.08;97067.03;4968416;28;20680;-82
2021/12/06 09:16:42;;;;;;;21.50;11.70;;;;;;;19.44;47.07;97129.06;4960848;28;20195;-82
2021/12/06 09:19:09;;;;;;;23.10;11.63;;;;;;;19.21;46.98;97071.38;4963262;28;20195;-80
2021/12/06 09:21:37;;;;;;;29.83;11.70;;;;;;;19.32;47.12;97097.22;4950529;28;20234;-83
2021/12/06 09:24:06;;;;;;;20.77;11.97;;;;;;;19.05;46.99;97051.34;4974644;28;20226;-83
2021/12/06 09:26:32;;;;;;;17.73;12.07;;;;;;;18.51;47.10;96973.25;4974686;28;20625;-83
2021/12/06 09:28:59;;;;;;;20.43;13.63;;;;;;;19.29;45.92;97089.50;4956203;28;20199;-83
2021/12/06 09:31:25;;;;;;;18.57;12.90;;;;;;;19.64;45.95;97150.94;4954594;28;20191;-83
2021/12/06 09:33:52;;;;;;;17.47;12.47;;;;;;;19.39;46.30;97114.47;4971741;28;20772;-81
2021/12/06 09:36:21;;;;;;;15.97;11.43;;;;;;;19.57;46.40;97143.06;4954296;28;20254;-83
2021/12/06 09:38:47;;;;;;;17.07;12.33;;;;;;;19.14;46.43;97074.56;4970621;28;20211;-83
2021/12/06 09:41:24;;;;;;;23.07;12.63;;;;;;;18.90;46.63;97048.31;4938556;28;20525;-83
2021/12/06 09:43:51;;;;;;;20.07;12.90;;;;;;;19.38;46.77;97125.44;4954528;28;20630;-82
2021/12/06 09:46:18;;;;;;;17.03;11.30;;;;;;;19.14;46.73;97081.34;4957937;28;20207;-82
2021/12/06 09:48:45;;;;;;;19.20;12.30;;;;;;;19.14;46.52;97086.44;4957993;28;20720;-84
2021/12/06 09:51:17;;;;;;;16.07;11.03;;;;;;;19.30;46.87;97104.81;4958140;28;20231;-83
2021/12/06 09:53:45;;;;;;;17.00;12.30;;;;;;;19.22;46.74;97090.09;4969767;28;20697;-83
2021/12/06 09:56:15;;;;;;;18.33;11.83;;;;;;;18.92;46.88;97035.66;4970539;28;20199;-82
2021/12/06 09:58:41;;;;;;;19.00;11.87;;;;;;;19.35;46.79;97110.94;4957892;28;20507;-83
2021/12/06 10:01:15;;;;;;;16.67;10.93;;;;;;;19.47;47.11;97138.47;4954472;28;20208;-83
2021/12/06 10:03:44;;;;;;;16.63;11.87;;;;;;;19.44;47.24;97131.59;4942872;28;20297;-81
2021/12/06 10:06:11;;;;;;;14.93;11.03;;;;;;;19.71;46.92;97180.00;4973303;28;20599;-83
2021/12/06 10:08:39;;;;;;;15.07;11.13;;;;;;;19.17;46.92;97089.94;4958683;28;20245;-82
2021/12/06 10:11:07;;;;;;;14.07;11.07;;;;;;;19.17;46.96;97084.84;4962877;28;20722;-83
2021/12/06 10:13:33;;;;;;;17.63;10.80;;;;;;;19.49;47.12;97129.19;4975301;28;20720;-83
2021/12/06 10:16:01;;;;;;;13.67;10.83;;;;;;;19.03;47.15;97047.00;4964798;28;20208;-84
2021/12/06 10:18:27;;;;;;;15.10;12.40;;;;;;;19.10;45.96;97062.53;4958392;28;20673;-82
2021/12/06 10:20:54;;;;;;;19.43;12.17;;;;;;;19.33;45.31;97096.44;4975825;28;20222;-82
2021/12/06 10:23:21;;;;;;;13.73;11.30;;;;;;;19.28;45.90;97085.22;4943841;28;20215;-82
2021/12/06 10:25:49;;;;;;;14.33;11.80;;;;;;;18.86;46.03;97013.38;4943188;28;20243;-82
2021/12/06 10:28:16;;;;;;;15.40;11.27;;;;;;;19.12;46.09;97054.94;4959745;28;20231;-83
2021/12/06 10:30:48;;;;;;;13.50;10.80;;;;;;;19.41;46.16;97108.56;4958615;28;20314;-81
2021/12/06 10:33:23;;;;;;;16.10;10.70;;;;;;;19.16;46.35;97072.06;4975185;28;20247;-80
2021/12/06 10:35:52;;;;;;;13.47;10.80;;;;;;;19.31;46.16;97096.38;4960286;28;20237;-83
2021/12/06 10:38:23;;;;;;;12.77;10.33;;;;;;;19.41;46.52;97108.56;4958830;28;20211;-83
2021/12/06 10:40:55;;;;;;;11.97;10.67;;;;;;;19.56;46.71;97138.75;4959264;28;21526;-83
2021/12/06 10:43:21;;;;;;;15.33;10.93;;;;;;;19.69;46.63;97158.72;4960363;23;20219;-81
2021/12/06 10:45:48;;;;;;;12.97;10.47;;;;;;;19.69;46.66;97151.91;4991047;28;20238;-81
2021/12/06 10:48:21;;;;;;;16.93;11.03;;;;;;;19.17;46.69;97066.16;4989099;28;20289;-80
2021/12/06 10:50:51;;;;;;;13.50;10.37;;;;;;;19.70;46.71;97152.81;4962036;28;20222;-80
2021/12/06 10:53:23;;;;;;;13.77;10.67;;;;;;;19.24;46.79;97073.16;5006011;28;20233;-82
2021/12/06 10:55:51;;;;;;;12.37;9.63;;;;;;;19.18;46.73;97056.00;4973387;28;20257;-81
2021/12/06 10:58:22;;;;;;;11.03;9.50;;;;;;;19.71;46.90;97155.41;4972777;28;20281;-80
2021/12/06 11:00:56;;;;;;;12.63;10.40;;;;;;;18.88;46.88;97005.78;4975711;28;20199;-80
2021/12/06 11:03:32;;;;;;;13.03;10.07;;;;;;;19.29;47.08;97077.63;4989936;28;20258;-80
2021/12/06 11:06:07;;;;;;;13.53;10.13;;;;;;;19.19;46.94;97062.81;4987001;28;20194;-80
2021/12/06 11:08:35;;;;;;;12.73;10.07;;;;;;;19.41;47.19;97097.50;4976522;28;20341;-80
2021/12/06 11:11:12;;;;;;;12.00;9.77;;;;;;;18.87;47.16;97002.41;4990683;28;20219;-79
2021/12/06 11:13:44;;;;;;;12.80;8.93;;;;;;;19.41;47.29;97100.06;4984174;28;20740;-80
2021/12/06 11:16:12;;;;;;;13.07;9.23;;;;;;;19.41;47.11;97093.28;4988657;28;20281;-79
2021/12/06 11:18:50;;;;;;;11.10;8.83;;;;;;;19.54;47.24;97117.47;5008506;28;20787;-79
2021/12/06 11:21:22;;;;;;;10.10;7.83;;;;;;;19.72;47.07;97149.47;4999113;28;20226;-79
2021/12/06 11:24:04;;;;;;;10.30;7.97;;;;;;;19.73;47.25;97147.78;4987747;28;20671;-79
2021/12/06 11:26:31;;;;;;;14.70;8.63;;;;;;;19.24;47.19;97068.94;4984975;28;20729;-80
2021/12/06 11:29:07;;;;;;;11.97;8.57;;;;;;;19.11;47.33;97041.38;4990592;28;20199;-80
2021/12/06 11:31:34;;;;;;;11.07;8.27;;;;;;;19.42;47.54;97100.09;4957545;28;20305;-81
2021/12/06 11:34:03;;;;;;;15.50;8.83;;;;;;;19.73;47.45;97155.44;4981483;28;20223;-80
2021/12/06 11:36:31;;;;;;;10.53;7.73;;;;;;;19.43;47.29;97096.75;4975220;28;20195;-80
2021/12/06 11:39:00;;;;;;;19.10;8.30;;;;;;;19.26;47.56;97100.44;4977721;28;20237;-80
2021/12/06 11:41:27;;;;;;;10.43;8.03;;;;;;;18.92;47.39;97007.63;5015599;28;20849;-80
2021/12/06 11:43:53;;;;;;;11.97;8.43;;;;;;;19.42;47.20;97086.53;4972729;28;20727;-80
2021/12/06 11:46:28;;;;;;;14.73;8.83;;;;;;;18.97;47.43;97011.16;4963077;28;20215;-80